Time;durP1;ratioP1;P1;durP2;ratioP2;P2;SDS_P1;SDS_P2;PMS_P1;PMS_P2;Temp;Humidity;BMP_temperature;BMP_pressure;BME280_temperature;BME280_humidity;BME280_pressure;Samples;Min_cycle;Max_cycle;Signal;HPM_P1;HPM_P2
2021/08/19 00:02:16;;;;;;;9.15;4.22;;;;;;;;;;4448820;32;20345;-58
2021/08/19 00:04:42;;;;;;;6.78;3.90;;;;;;;;;;4446749;32;20317;-57
2021/08/19 00:07:07;;;;;;;9.30;4.93;;;;;;;;;;4447761;32;20302;-58
2021/08/19 00:09:36;;;;;;;10.13;4.10;;;;;;;;;;4448109;32;20743;-57
2021/08/19 00:12:03;;;;;;;9.27;4.12;;;;;;;;;;4447774;32;20579;-57
2021/08/19 00:14:28;;;;;;;8.35;3.80;;;;;;;;;;4447739;32;20324;-58
2021/08/19 00:16:54;;;;;;;5.25;3.30;;;;;;;;;;4446744;32;20295;-57
2021/08/19 00:19:19;;;;;;;4.47;3.12;;;;;;;;;;4447822;32;20224;-57
2021/08/19 00:21:45;;;;;;;6.32;3.40;;;;;;;;;;4447492;32;20429;-58
2021/08/19 00:24:10;;;;;;;5.75;3.10;;;;;;;;;;4447580;32;20224;-57
2021/08/19 00:26:36;;;;;;;6.53;3.05;;;;;;;;;;4447905;32;20669;-57
2021/08/19 00:29:01;;;;;;;6.75;2.83;;;;;;;;;;4447344;32;20678;-57
2021/08/19 00:31:27;;;;;;;6.70;3.35;;;;;;;;;;4447887;32;20706;-59
2021/08/19 00:33:52;;;;;;;4.55;3.65;;;;;;;;;;4463225;32;20580;-57
2021/08/19 00:36:19;;;;;;;5.25;3.12;;;;;;;;;;4463231;32;20279;-59
2021/08/19 00:38:45;;;;;;;7.30;3.22;;;;;;;;;;4463082;32;20266;-58
2021/08/19 00:41:11;;;;;;;9.80;6.05;;;;;;;;;;4463021;32;20216;-59
2021/08/19 00:43:36;;;;;;;6.00;4.90;;;;;;;;;;4465566;32;20270;-58
2021/08/19 00:46:03;;;;;;;8.38;4.55;;;;;;;;;;4465778;32;20275;-58
2021/08/19 00:48:30;;;;;;;8.88;4.72;;;;;;;;;;4466296;32;20223;-58
2021/08/19 00:50:55;;;;;;;5.22;3.20;;;;;;;;;;4466193;32;20271;-57
2021/08/19 00:53:21;;;;;;;11.20;5.00;;;;;;;;;;4466116;32;20228;-58
2021/08/19 00:55:49;;;;;;;6.78;4.20;;;;;;;;;;4466341;32;20279;-57
2021/08/19 00:58:14;;;;;;;6.40;3.78;;;;;;;;;;4453138;32;20659;-57
2021/08/19 01:00:42;;;;;;;5.18;3.47;;;;;;;;;;4450482;32;20287;-57
2021/08/19 01:03:08;;;;;;;8.82;3.75;;;;;;;;;;4450399;32;20312;-57
2021/08/19 01:05:37;;;;;;;7.07;4.25;;;;;;;;;;4450286;32;20303;-57
2021/08/19 01:08:04;;;;;;;5.40;3.42;;;;;;;;;;4450264;32;20212;-58
2021/08/19 01:10:30;;;;;;;6.00;3.92;;;;;;;;;;4450486;32;20228;-59
2021/08/19 01:12:56;;;;;;;7.28;4.10;;;;;;;;;;4450203;32;20303;-59
2021/08/19 01:15:22;;;;;;;5.32;3.65;;;;;;;;;;4449121;32;20383;-59
2021/08/19 01:17:58;;;;;;;17.98;4.00;;;;;;;;;;4450311;32;20686;-59
2021/08/19 01:20:26;;;;;;;4.62;3.40;;;;;;;;;;4449014;32;20388;-59
2021/08/19 01:22:52;;;;;;;5.80;3.40;;;;;;;;;;4449730;32;20219;-57
2021/08/19 01:25:17;;;;;;;6.32;3.97;;;;;;;;;;4449165;32;20213;-57
2021/08/19 01:27:43;;;;;;;4.62;3.33;;;;;;;;;;4450839;32;20332;-57
2021/08/19 01:30:09;;;;;;;5.62;3.50;;;;;;;;;;4449778;32;20444;-57
2021/08/19 01:32:34;;;;;;;10.25;3.45;;;;;;;;;;4457657;32;20303;-59
2021/08/19 01:35:00;;;;;;;6.15;3.95;;;;;;;;;;4465316;32;20219;-57
2021/08/19 01:37:25;;;;;;;7.57;3.92;;;;;;;;;;4465311;32;20749;-59
2021/08/19 01:39:51;;;;;;;14.18;3.70;;;;;;;;;;4465255;32;20438;-57
2021/08/19 01:42:16;;;;;;;5.35;3.60;;;;;;;;;;4466163;32;20272;-57
2021/08/19 01:44:42;;;;;;;6.57;3.33;;;;;;;;;;4465418;32;20264;-57
2021/08/19 01:47:09;;;;;;;4.82;3.45;;;;;;;;;;4451077;32;20279;-57
2021/08/19 01:49:35;;;;;;;4.45;3.35;;;;;;;;;;4447827;32;20233;-57
2021/08/19 01:52:02;;;;;;;5.55;3.33;;;;;;;;;;4449237;32;20253;-57
2021/08/19 01:54:28;;;;;;;6.93;3.53;;;;;;;;;;4448623;32;20229;-57
2021/08/19 01:56:54;;;;;;;4.57;3.08;;;;;;;;;;4449668;32;20267;-57
2021/08/19 01:59:20;;;;;;;6.95;3.50;;;;;;;;;;4449624;32;20224;-57
2021/08/19 02:01:45;;;;;;;4.20;3.12;;;;;;;;;;4448315;32;20319;-57
2021/08/19 02:04:10;;;;;;;4.05;3.05;;;;;;;;;;4449711;32;20721;-57
2021/08/19 02:06:36;;;;;;;6.90;4.15;;;;;;;;;;4449476;32;20721;-57
2021/08/19 02:09:02;;;;;;;8.30;3.78;;;;;;;;;;4449447;32;20220;-57
2021/08/19 02:11:27;;;;;;;5.22;3.03;;;;;;;;;;4449473;32;20699;-59
2021/08/19 02:13:52;;;;;;;6.62;3.30;;;;;;;;;;4449209;32;20297;-57
2021/08/19 02:16:18;;;;;;;4.47;3.00;;;;;;;;;;4449607;32;20699;-57
2021/08/19 02:18:44;;;;;;;11.73;2.35;;;;;;;;;;4435275;32;20246;-57
2021/08/19 02:21:10;;;;;;;7.75;3.37;;;;;;;;;;4449093;32;20236;-58
2021/08/19 02:23:35;;;;;;;5.60;3.30;;;;;;;;;;4449757;32;20228;-57
2021/08/19 02:26:01;;;;;;;6.45;3.22;;;;;;;;;;4449290;32;20306;-58
2021/08/19 02:28:26;;;;;;;7.10;2.55;;;;;;;;;;4452472;32;20251;-58
2021/08/19 02:30:52;;;;;;;4.10;2.50;;;;;;;;;;4459293;32;20436;-58
2021/08/19 02:33:17;;;;;;;3.08;2.42;;;;;;;;;;4450014;32;20259;-57
2021/08/19 02:35:42;;;;;;;5.20;2.65;;;;;;;;;;4449316;32;20275;-57
2021/08/19 02:38:08;;;;;;;2.37;1.87;;;;;;;;;;4449165;32;20228;-59
2021/08/19 02:40:36;;;;;;;4.95;2.00;;;;;;;;;;4449170;32;20302;-59
2021/08/19 02:43:03;;;;;;;2.80;1.75;;;;;;;;;;4453545;32;20265;-59
2021/08/19 02:45:29;;;;;;;3.90;2.95;;;;;;;;;;4464304;32;20274;-60
2021/08/19 02:47:55;;;;;;;3.62;2.17;;;;;;;;;;4463149;32;20331;-60
2021/08/19 02:50:20;;;;;;;2.83;2.08;;;;;;;;;;4454001;32;20295;-59
2021/08/19 02:52:47;;;;;;;6.12;1.75;;;;;;;;;;4447575;32;20663;-59
2021/08/19 02:55:12;;;;;;;4.93;2.30;;;;;;;;;;4448510;32;20240;-59
2021/08/19 02:57:38;;;;;;;3.78;1.80;;;;;;;;;;4447600;32;20396;-58
2021/08/19 03:00:05;;;;;;;4.78;1.98;;;;;;;;;;4448728;32;20255;-58
2021/08/19 03:02:31;;;;;;;2.28;1.20;;;;;;;;;;4449182;32;20228;-58
2021/08/19 03:04:56;;;;;;;2.85;1.73;;;;;;;;;;4447145;32;20292;-56
2021/08/19 03:07:23;;;;;;;1.35;1.15;;;;;;;;;;4447935;32;20283;-57
2021/08/19 03:09:49;;;;;;;5.97;2.65;;;;;;;;;;4448718;32;20232;-57
2021/08/19 03:12:15;;;;;;;3.17;2.10;;;;;;;;;;4448555;32;20319;-57
2021/08/19 03:14:40;;;;;;;3.12;2.22;;;;;;;;;;4448809;32;20271;-56
2021/08/19 03:17:07;;;;;;;4.80;2.45;;;;;;;;;;4448548;32;20352;-58
2021/08/19 03:19:34;;;;;;;3.85;2.05;;;;;;;;;;4448765;32;20401;-58
2021/08/19 03:22:00;;;;;;;3.80;2.00;;;;;;;;;;4448130;32;20282;-57
2021/08/19 03:24:27;;;;;;;3.22;1.52;;;;;;;;;;4447120;32;20334;-57
2021/08/19 03:26:52;;;;;;;2.97;1.60;;;;;;;;;;4448356;32;20237;-58
2021/08/19 03:29:18;;;;;;;5.37;2.12;;;;;;;;;;4448590;32;20220;-57
2021/08/19 03:31:43;;;;;;;3.65;2.12;;;;;;;;;;4451749;32;20338;-57
2021/08/19 03:34:09;;;;;;;2.53;1.58;;;;;;;;;;4464201;32;20597;-57
2021/08/19 03:36:34;;;;;;;2.05;1.62;;;;;;;;;;4462603;32;20283;-58
2021/08/19 03:39:00;;;;;;;1.65;1.42;;;;;;;;;;4463631;32;20277;-57
2021/08/19 03:41:26;;;;;;;3.15;2.10;;;;;;;;;;4464385;32;20298;-57
2021/08/19 03:43:51;;;;;;;3.60;2.12;;;;;;;;;;4463493;32;20227;-57
2021/08/19 03:46:18;;;;;;;2.30;1.67;;;;;;;;;;4455149;32;20752;-56
2021/08/19 03:48:44;;;;;;;3.97;1.87;;;;;;;;;;4448376;32;20252;-57
2021/08/19 03:51:09;;;;;;;4.32;1.73;;;;;;;;;;4447945;32;20425;-58
2021/08/19 03:53:36;;;;;;;4.20;2.00;;;;;;;;;;4448333;32;20648;-57
2021/08/19 03:56:06;;;;;;;3.50;1.90;;;;;;;;;;4448154;32;20243;-56
2021/08/19 03:58:31;;;;;;;2.67;1.77;;;;;;;;;;4448218;32;20270;-55
2021/08/19 04:00:57;;;;;;;3.55;2.10;;;;;;;;;;4448077;32;20687;-55
2021/08/19 04:03:23;;;;;;;3.45;1.98;;;;;;;;;;4447844;32;20363;-55
2021/08/19 04:05:48;;;;;;;9.45;2.12;;;;;;;;;;4447769;32;20329;-55
2021/08/19 04:08:14;;;;;;;8.30;1.75;;;;;;;;;;4447785;32;20244;-55
2021/08/19 04:10:40;;;;;;;3.42;1.65;;;;;;;;;;4447954;32;20361;-56
2021/08/19 04:13:05;;;;;;;4.10;2.10;;;;;;;;;;4447806;32;20342;-55
2021/08/19 04:15:31;;;;;;;7.60;2.00;;;;;;;;;;4446835;32;20315;-56
2021/08/19 04:17:56;;;;;;;2.33;1.75;;;;;;;;;;4446458;32;20732;-56
2021/08/19 04:20:23;;;;;;;2.72;1.60;;;;;;;;;;4446773;32;20235;-58
2021/08/19 04:22:48;;;;;;;2.00;1.52;;;;;;;;;;4448041;32;20319;-57
2021/08/19 04:25:14;;;;;;;4.82;1.60;;;;;;;;;;4446540;32;20229;-57
2021/08/19 04:27:40;;;;;;;3.85;2.30;;;;;;;;;;4447819;32;20647;-59
2021/08/19 04:30:06;;;;;;;3.53;1.92;;;;;;;;;;4446108;32;20828;-57
2021/08/19 04:32:32;;;;;;;3.17;2.33;;;;;;;;;;4455957;32;20245;-58
2021/08/19 04:34:57;;;;;;;6.72;3.37;;;;;;;;;;4463291;32;20220;-58
2021/08/19 04:37:23;;;;;;;5.78;4.45;;;;;;;;;;4461856;32;20690;-58
2021/08/19 04:39:48;;;;;;;10.18;3.40;;;;;;;;;;4463464;32;20645;-57
2021/08/19 04:42:14;;;;;;;5.10;1.70;;;;;;;;;;4456841;32;20283;-57
2021/08/19 04:44:40;;;;;;;2.30;1.60;;;;;;;;;;4462869;32;20525;-57
2021/08/19 04:47:06;;;;;;;3.17;1.83;;;;;;;;;;4449320;32;20356;-58
2021/08/19 04:49:32;;;;;;;4.78;2.70;;;;;;;;;;4447887;32;20320;-57
2021/08/19 04:51:57;;;;;;;7.97;2.42;;;;;;;;;;4447370;32;20259;-58
2021/08/19 04:54:22;;;;;;;3.53;2.08;;;;;;;;;;4447249;32;20656;-58
2021/08/19 04:56:48;;;;;;;7.62;2.80;;;;;;;;;;4447776;32;20668;-58
2021/08/19 04:59:13;;;;;;;4.03;1.77;;;;;;;;;;4446536;32;20294;-58
2021/08/19 05:01:39;;;;;;;2.90;1.70;;;;;;;;;;4447781;32;20302;-59
2021/08/19 05:04:05;;;;;;;4.80;2.42;;;;;;;;;;4447487;32;20799;-58
2021/08/19 05:06:32;;;;;;;3.90;1.95;;;;;;;;;;4446156;32;20315;-58
2021/08/19 05:09:00;;;;;;;6.60;2.37;;;;;;;;;;4447410;32;20240;-57
2021/08/19 05:11:26;;;;;;;4.40;1.98;;;;;;;;;;4447825;32;20286;-56
2021/08/19 05:13:57;;;;;;;3.22;2.53;;;;;;;;;;4447389;32;20279;-56
2021/08/19 05:16:22;;;;;;;3.78;2.10;;;;;;;;;;4447651;32;20229;-57
2021/08/19 05:18:47;;;;;;;4.60;1.90;;;;;;;;;;4447436;32;20649;-57
2021/08/19 05:21:14;;;;;;;5.68;2.65;;;;;;;;;;4447382;32;20636;-57
2021/08/19 05:23:40;;;;;;;6.93;1.95;;;;;;;;;;4447555;32;20288;-58
2021/08/19 05:26:06;;;;;;;4.07;2.28;;;;;;;;;;4458612;32;20542;-58
2021/08/19 05:28:32;;;;;;;2.22;1.75;;;;;;;;;;4463442;32;20244;-59
2021/08/19 05:30:57;;;;;;;3.22;1.70;;;;;;;;;;4458779;32;20691;-59
2021/08/19 05:33:23;;;;;;;4.65;1.70;;;;;;;;;;4462903;32;20680;-58
2021/08/19 05:35:48;;;;;;;2.40;1.40;;;;;;;;;;4465690;32;20666;-59
2021/08/19 05:38:14;;;;;;;6.07;2.00;;;;;;;;;;4459481;32;20293;-58
2021/08/19 05:40:39;;;;;;;3.08;2.17;;;;;;;;;;4450554;32;20331;-58
2021/08/19 05:43:06;;;;;;;5.45;2.10;;;;;;;;;;4454921;32;20366;-57
2021/08/19 05:45:34;;;;;;;4.85;3.03;;;;;;;;;;4464013;32;20236;-57
2021/08/19 05:48:01;;;;;;;6.15;3.35;;;;;;;;;;4465567;32;20200;-58
2021/08/19 05:50:27;;;;;;;5.80;2.92;;;;;;;;;;4464791;32;20237;-58
2021/08/19 05:52:53;;;;;;;2.78;1.80;;;;;;;;;;4465299;32;20320;-58
2021/08/19 05:55:18;;;;;;;3.62;1.80;;;;;;;;;;4465436;32;20287;-57
2021/08/19 05:57:46;;;;;;;2.17;1.37;;;;;;;;;;4465579;32;20340;-57
2021/08/19 06:00:12;;;;;;;3.92;2.17;;;;;;;;;;4465119;32;20296;-57
2021/08/19 06:02:38;;;;;;;2.15;1.67;;;;;;;;;;4465709;32;20291;-57
2021/08/19 06:05:04;;;;;;;3.72;1.45;;;;;;;;;;4463611;32;20305;-57
2021/08/19 06:07:29;;;;;;;2.70;1.40;;;;;;;;;;4462569;32;20731;-56
2021/08/19 06:09:55;;;;;;;5.00;1.45;;;;;;;;;;4449645;32;20259;-57
2021/08/19 06:12:20;;;;;;;3.85;1.90;;;;;;;;;;4449810;32;20590;-56
2021/08/19 06:14:46;;;;;;;2.50;1.27;;;;;;;;;;4450141;32;20291;-56
2021/08/19 06:17:11;;;;;;;6.05;1.62;;;;;;;;;;4449466;32;20716;-57
2021/08/19 06:19:36;;;;;;;2.15;1.70;;;;;;;;;;4445618;32;20262;-57
2021/08/19 06:22:02;;;;;;;3.97;2.12;;;;;;;;;;4450366;32;20220;-57
2021/08/19 06:24:28;;;;;;;2.35;1.50;;;;;;;;;;4461533;32;20238;-56
2021/08/19 06:26:53;;;;;;;3.92;1.85;;;;;;;;;;4462394;32;20303;-56
2021/08/19 06:29:18;;;;;;;5.20;1.77;;;;;;;;;;4455782;32;20687;-55
2021/08/19 06:31:44;;;;;;;3.67;1.30;;;;;;;;;;4450258;32;20295;-56
2021/08/19 06:34:09;;;;;;;2.53;1.15;;;;;;;;;;4452458;32;20220;-57
2021/08/19 06:36:35;;;;;;;1.85;1.23;;;;;;;;;;4448845;32;20616;-55
2021/08/19 06:39:01;;;;;;;4.05;1.80;;;;;;;;;;4451384;32;20323;-55
2021/08/19 06:41:27;;;;;;;2.47;1.60;;;;;;;;;;4456737;32;20327;-56
2021/08/19 06:43:53;;;;;;;3.45;1.50;;;;;;;;;;4458470;32;20221;-55
2021/08/19 06:46:18;;;;;;;2.85;1.83;;;;;;;;;;4452912;32;20610;-54
2021/08/19 06:48:44;;;;;;;3.30;1.92;;;;;;;;;;4447706;32;20274;-56
2021/08/19 06:51:09;;;;;;;1.98;1.37;;;;;;;;;;4459833;32;20341;-56
2021/08/19 06:53:35;;;;;;;3.22;2.15;;;;;;;;;;4455182;32;20256;-56
2021/08/19 06:56:02;;;;;;;8.38;1.60;;;;;;;;;;4464412;32;20683;-56
2021/08/19 06:58:27;;;;;;;1.87;1.20;;;;;;;;;;4462159;32;20614;-56
2021/08/19 07:00:53;;;;;;;2.28;1.48;;;;;;;;;;4450733;32;20352;-55
2021/08/19 07:03:18;;;;;;;2.55;1.62;;;;;;;;;;4463734;32;20392;-56
2021/08/19 07:05:45;;;;;;;2.90;1.55;;;;;;;;;;4456731;32;20554;-55
2021/08/19 07:08:11;;;;;;;2.60;1.65;;;;;;;;;;4458311;32;20288;-55
2021/08/19 07:10:38;;;;;;;2.58;1.37;;;;;;;;;;4449693;32;20244;-57
2021/08/19 07:13:04;;;;;;;2.28;1.33;;;;;;;;;;4458168;32;20258;-55
2021/08/19 07:15:30;;;;;;;5.62;1.70;;;;;;;;;;4452585;32;20616;-56
2021/08/19 07:17:55;;;;;;;4.40;1.73;;;;;;;;;;4454418;32;20901;-56
2021/08/19 07:20:21;;;;;;;3.10;2.12;;;;;;;;;;4456030;32;20236;-56
2021/08/19 07:22:46;;;;;;;2.67;1.45;;;;;;;;;;4456955;32;20282;-57
2021/08/19 07:25:13;;;;;;;4.20;1.77;;;;;;;;;;4454600;32;20237;-57
2021/08/19 07:27:40;;;;;;;3.35;1.67;;;;;;;;;;4456202;32;20319;-57
2021/08/19 07:30:06;;;;;;;3.00;1.75;;;;;;;;;;4453089;32;20220;-57
2021/08/19 07:32:31;;;;;;;3.15;1.33;;;;;;;;;;4456262;32;20330;-57
2021/08/19 07:34:57;;;;;;;3.60;1.35;;;;;;;;;;4455308;32;20216;-56
2021/08/19 07:37:22;;;;;;;3.33;2.30;;;;;;;;;;4457057;32;20313;-56
2021/08/19 07:39:47;;;;;;;2.95;1.50;;;;;;;;;;4463714;32;20236;-56
2021/08/19 07:42:13;;;;;;;2.42;1.17;;;;;;;;;;4454845;32;20295;-56
2021/08/19 07:44:38;;;;;;;2.60;1.73;;;;;;;;;;4457135;32;20294;-56
2021/08/19 07:47:04;;;;;;;2.22;1.27;;;;;;;;;;4457417;32;20295;-55
2021/08/19 07:49:30;;;;;;;1.95;1.37;;;;;;;;;;4459918;32;20244;-56
2021/08/19 07:51:55;;;;;;;2.47;1.48;;;;;;;;;;4456507;32;20294;-56
2021/08/19 07:54:21;;;;;;;2.40;1.35;;;;;;;;;;4450972;32;20627;-55
2021/08/19 07:56:46;;;;;;;2.53;1.62;;;;;;;;;;4450275;32;20303;-58
2021/08/19 07:59:12;;;;;;;3.22;1.50;;;;;;;;;;4461795;32;20329;-55
2021/08/19 08:01:37;;;;;;;2.67;1.27;;;;;;;;;;4452089;32;20322;-56
2021/08/19 08:04:04;;;;;;;3.58;1.37;;;;;;;;;;4455370;32;20288;-55
2021/08/19 08:06:29;;;;;;;2.22;1.08;;;;;;;;;;4461278;32;20309;-57
2021/08/19 08:08:55;;;;;;;1.10;0.90;;;;;;;;;;4459968;32;20319;-56
2021/08/19 08:11:20;;;;;;;2.87;1.20;;;;;;;;;;4455763;32;20622;-56
2021/08/19 08:13:46;;;;;;;2.25;1.65;;;;;;;;;;4454545;32;20361;-56
2021/08/19 08:16:12;;;;;;;2.33;1.98;;;;;;;;;;4452543;32;20362;-56
2021/08/19 08:18:37;;;;;;;3.10;1.30;;;;;;;;;;4459470;32;20552;-56
2021/08/19 08:21:03;;;;;;;2.55;1.30;;;;;;;;;;4449968;32;20723;-56
2021/08/19 08:23:33;;;;;;;2.05;1.35;;;;;;;;;;4455276;32;20319;-56
2021/08/19 08:26:00;;;;;;;2.03;1.15;;;;;;;;;;4456208;32;20215;-56
2021/08/19 08:28:26;;;;;;;8.95;1.25;;;;;;;;;;4460157;32;20283;-55
2021/08/19 08:30:52;;;;;;;6.90;1.67;;;;;;;;;;4458118;32;20266;-56
2021/08/19 08:33:18;;;;;;;1.52;1.12;;;;;;;;;;4454097;32;20556;-56
2021/08/19 08:35:44;;;;;;;2.03;1.30;;;;;;;;;;4451274;32;20295;-57
2021/08/19 08:38:13;;;;;;;2.40;1.00;;;;;;;;;;4444828;32;20364;-56
2021/08/19 08:40:41;;;;;;;3.42;1.20;;;;;;;;;;4466939;32;20212;-56
2021/08/19 08:43:07;;;;;;;1.55;1.08;;;;;;;;;;4454149;32;20260;-56
2021/08/19 08:45:35;;;;;;;2.25;1.48;;;;;;;;;;4462417;32;20332;-57
2021/08/19 08:48:06;;;;;;;1.83;1.05;;;;;;;;;;4459652;32;20338;-55
2021/08/19 08:50:32;;;;;;;4.90;1.80;;;;;;;;;;4449950;32;20217;-56
2021/08/19 08:52:59;;;;;;;2.15;1.20;;;;;;;;;;4456583;32;20251;-57
2021/08/19 08:55:27;;;;;;;1.62;0.90;;;;;;;;;;4455393;32;20380;-57
2021/08/19 08:57:58;;;;;;;1.73;1.10;;;;;;;;;;4459942;32;20290;-57
2021/08/19 09:00:24;;;;;;;2.08;1.05;;;;;;;;;;4448762;32;20561;-57
2021/08/19 09:02:50;;;;;;;1.85;1.30;;;;;;;;;;4450133;32;20275;-56
2021/08/19 09:05:27;;;;;;;3.37;1.35;;;;;;;;;;4461960;32;20250;-57
2021/08/19 09:07:58;;;;;;;2.50;1.73;;;;;;;;;;4464828;32;20211;-57
2021/08/19 09:10:29;;;;;;;2.55;1.15;;;;;;;;;;4452873;32;20655;-56
2021/08/19 09:12:55;;;;;;;1.92;0.80;;;;;;;;;;4461944;32;20312;-56
2021/08/19 09:15:24;;;;;;;2.42;0.90;;;;;;;;;;4454164;32;20778;-57
2021/08/19 09:17:53;;;;;;;1.70;1.02;;;;;;;;;;4462066;32;20276;-56
2021/08/19 09:20:39;;;;;;;2.42;1.27;;;;;;;;;;4452654;32;20276;-56
2021/08/19 09:23:12;;;;;;;1.73;1.12;;;;;;;;;;4451172;32;20355;-57
2021/08/19 09:25:40;;;;;;;5.35;1.10;;;;;;;;;;4464028;32;20239;-56
2021/08/19 09:28:25;;;;;;;3.12;1.30;;;;;;;;;;4462137;32;20338;-56
2021/08/19 09:30:53;;;;;;;1.52;0.88;;;;;;;;;;4451411;32;20277;-56
2021/08/19 09:33:24;;;;;;;1.10;1.00;;;;;;;;;;4455477;32;20675;-57
2021/08/19 09:35:52;;;;;;;1.27;0.90;;;;;;;;;;4456512;32;20549;-56
2021/08/19 09:38:21;;;;;;;1.42;1.08;;;;;;;;;;4462758;32;20228;-57
2021/08/19 09:41:08;;;;;;;2.22;1.20;;;;;;;;;;4447348;32;20307;-57
2021/08/19 09:43:43;;;;;;;2.97;1.20;;;;;;;;;;4456441;32;20271;-57
2021/08/19 09:46:11;;;;;;;1.62;1.08;;;;;;;;;;4452996;32;20211;-57
2021/08/19 09:48:37;;;;;;;2.17;1.20;;;;;;;;;;4462630;32;20322;-56
2021/08/19 09:51:13;;;;;;;1.62;1.08;;;;;;;;;;4465103;32;20308;-57
2021/08/19 09:53:46;;;;;;;2.25;0.90;;;;;;;;;;4464848;32;20247;-57
2021/08/19 09:56:13;;;;;;;1.92;1.12;;;;;;;;;;4464343;32;20591;-57
2021/08/19 09:58:39;;;;;;;3.10;1.12;;;;;;;;;;4462363;32;20228;-57
2021/08/19 10:01:04;;;;;;;3.10;1.70;;;;;;;;;;4457287;32;20291;-58
2021/08/19 10:03:30;;;;;;;2.22;1.23;;;;;;;;;;4455026;32;20220;-57
2021/08/19 10:05:56;;;;;;;2.47;1.20;;;;;;;;;;4464180;32;20287;-60
2021/08/19 10:08:23;;;;;;;3.03;1.10;;;;;;;;;;4459521;32;20240;-58
2021/08/19 10:10:52;;;;;;;1.77;0.85;;;;;;;;;;4456836;32;20269;-58
2021/08/19 10:13:18;;;;;;;2.67;1.12;;;;;;;;;;4453769;32;20281;-58
2021/08/19 10:15:47;;;;;;;3.33;1.05;;;;;;;;;;4456381;32;20595;-58
2021/08/19 10:18:17;;;;;;;4.55;1.12;;;;;;;;;;4457731;32;20301;-58
2021/08/19 10:20:45;;;;;;;4.35;1.20;;;;;;;;;;4458108;32;20303;-58
2021/08/19 10:23:12;;;;;;;2.17;1.10;;;;;;;;;;4458741;32;20221;-57
2021/08/19 10:25:38;;;;;;;1.90;1.12;;;;;;;;;;4458032;32;20352;-58
2021/08/19 10:28:13;;;;;;;4.57;1.52;;;;;;;;;;4453481;32;20280;-58
2021/08/19 10:30:51;;;;;;;1.67;1.40;;;;;;;;;;4453956;32;20289;-59
2021/08/19 10:33:35;;;;;;;1.25;1.00;;;;;;;;;;4455279;32;20299;-57
2021/08/19 10:36:45;;;;;;;2.22;1.40;;;;;;;;;;4451354;32;20387;-57
2021/08/19 10:39:20;;;;;;;1.85;1.20;;;;;;;;;;4457963;32;20224;-57
2021/08/19 10:41:46;;;;;;;2.80;1.20;;;;;;;;;;4455271;32;20305;-59
2021/08/19 10:44:13;;;;;;;2.05;1.20;;;;;;;;;;4459371;32;20323;-57
2021/08/19 10:46:41;;;;;;;3.40;1.40;;;;;;;;;;4451624;32;20283;-57
2021/08/19 10:49:07;;;;;;;2.67;1.45;;;;;;;;;;4463642;32;20712;-57
2021/08/19 10:51:32;;;;;;;2.80;1.40;;;;;;;;;;4464257;32;20271;-58
2021/08/19 10:53:58;;;;;;;1.77;1.20;;;;;;;;;;4464385;32;20312;-58
2021/08/19 10:56:45;;;;;;;2.90;1.37;;;;;;;;;;4459284;32;20282;-58
2021/08/19 10:59:32;;;;;;;1.48;0.98;;;;;;;;;;4450979;32;20292;-58
2021/08/19 11:01:59;;;;;;;1.40;1.20;;;;;;;;;;4457430;32;20231;-58
2021/08/19 11:04:44;;;;;;;1.48;1.15;;;;;;;;;;4452395;32;20283;-59
2021/08/19 11:07:10;;;;;;;3.37;1.73;;;;;;;;;;4463016;32;20697;-58
2021/08/19 11:09:37;;;;;;;2.67;1.50;;;;;;;;;;4463311;32;20288;-57
2021/08/19 11:12:04;;;;;;;2.45;1.58;;;;;;;;;;4455585;32;20258;-58
2021/08/19 11:14:30;;;;;;;2.85;1.85;;;;;;;;;;4452800;32;20255;-57
2021/08/19 11:16:58;;;;;;;2.97;1.50;;;;;;;;;;4451007;32;20295;-58
2021/08/19 11:19:29;;;;;;;1.60;1.23;;;;;;;;;;4460063;32;20261;-58
2021/08/19 11:21:57;;;;;;;3.85;1.62;;;;;;;;;;4455382;32;20271;-58
2021/08/19 11:24:26;;;;;;;3.00;1.30;;;;;;;;;;4452203;32;20678;-58
2021/08/19 11:26:59;;;;;;;5.43;1.55;;;;;;;;;;4461903;32;20228;-57
2021/08/19 11:29:35;;;;;;;5.53;1.67;;;;;;;;;;4458771;32;20652;-58
2021/08/19 11:32:05;;;;;;;1.73;1.20;;;;;;;;;;4455211;32;20608;-58
2021/08/19 11:34:31;;;;;;;1.75;1.27;;;;;;;;;;4451021;32;20248;-58
2021/08/19 11:36:56;;;;;;;2.10;1.40;;;;;;;;;;4450152;32;20709;-58
2021/08/19 11:39:27;;;;;;;2.08;1.30;;;;;;;;;;4463672;32;20628;-58
2021/08/19 11:42:04;;;;;;;5.25;1.85;;;;;;;;;;4455519;32;20255;-58
2021/08/19 11:44:30;;;;;;;1.50;1.17;;;;;;;;;;4450962;32;20607;-58
2021/08/19 11:47:05;;;;;;;2.42;1.42;;;;;;;;;;4461255;32;20275;-58
2021/08/19 11:49:32;;;;;;;3.50;1.55;;;;;;;;;;4457104;32;20303;-57
2021/08/19 11:52:09;;;;;;;4.78;1.73;;;;;;;;;;4456618;32;20220;-58
2021/08/19 11:54:44;;;;;;;3.55;1.33;;;;;;;;;;4461228;32;20223;-58
2021/08/19 11:57:20;;;;;;;2.03;1.55;;;;;;;;;;4448908;32;20317;-59
2021/08/19 11:59:58;;;;;;;4.80;1.37;;;;;;;;;;4455546;32;20223;-56
2021/08/19 12:02:24;;;;;;;4.12;1.58;;;;;;;;;;4463485;32;20270;-57
2021/08/19 12:05:01;;;;;;;4.03;1.73;;;;;;;;;;4461631;32;20217;-57
2021/08/19 12:07:27;;;;;;;2.72;1.30;;;;;;;;;;4453526;32;20318;-57
2021/08/19 12:09:53;;;;;;;2.78;1.45;;;;;;;;;;4450564;32;20727;-57
2021/08/19 12:12:18;;;;;;;3.67;1.80;;;;;;;;;;4453687;32;20699;-57
2021/08/19 12:14:44;;;;;;;3.67;1.95;;;;;;;;;;4453197;32;20344;-57
2021/08/19 12:17:09;;;;;;;4.60;2.20;;;;;;;;;;4461345;32;20773;-57
2021/08/19 12:19:35;;;;;;;2.92;1.62;;;;;;;;;;4460215;32;20408;-57
2021/08/19 12:22:01;;;;;;;2.92;1.55;;;;;;;;;;4454372;32;20712;-58
2021/08/19 12:24:30;;;;;;;4.20;1.98;;;;;;;;;;4451254;32;20343;-57
2021/08/19 12:27:16;;;;;;;3.45;2.12;;;;;;;;;;4458241;32;20377;-58
2021/08/19 12:29:48;;;;;;;3.83;1.85;;;;;;;;;;4463204;32;20228;-60
2021/08/19 12:32:23;;;;;;;2.47;1.80;;;;;;;;;;4455707;32;20620;-58
2021/08/19 12:35:02;;;;;;;4.60;2.30;;;;;;;;;;4447708;32;20259;-60
2021/08/19 12:37:29;;;;;;;6.50;2.15;;;;;;;;;;4450946;32;20228;-59
2021/08/19 12:39:55;;;;;;;2.15;1.55;;;;;;;;;;4463204;32;20327;-58
2021/08/19 12:42:32;;;;;;;4.65;1.92;;;;;;;;;;4462579;32;20299;-59
2021/08/19 12:45:08;;;;;;;2.97;2.08;;;;;;;;;;4461831;32;20231;-59
2021/08/19 12:47:42;;;;;;;3.75;1.45;;;;;;;;;;4458658;32;20240;-59
2021/08/19 12:50:09;;;;;;;3.87;1.87;;;;;;;;;;4448126;32;20271;-58
2021/08/19 12:52:35;;;;;;;2.37;1.80;;;;;;;;;;4447274;32;20326;-59
2021/08/19 12:55:26;;;;;;;3.45;1.52;;;;;;;;;;4447438;32;20244;-59
2021/08/19 12:57:53;;;;;;;3.25;1.92;;;;;;;;;;4447565;32;20215;-59
2021/08/19 13:00:20;;;;;;;2.30;1.73;;;;;;;;;;4447784;32;20256;-59
2021/08/19 13:02:47;;;;;;;5.35;2.40;;;;;;;;;;4443185;32;20244;-60
2021/08/19 13:05:16;;;;;;;4.05;1.73;;;;;;;;;;4457099;32;20247;-60
2021/08/19 13:07:41;;;;;;;2.37;1.52;;;;;;;;;;4466667;32;20203;-59
2021/08/19 13:10:08;;;;;;;2.60;1.58;;;;;;;;;;4462023;32;20296;-59
2021/08/19 13:12:34;;;;;;;1.87;1.50;;;;;;;;;;4447950;32;20333;-59
2021/08/19 13:15:04;;;;;;;6.47;2.03;;;;;;;;;;4461684;32;20274;-59
2021/08/19 13:17:30;;;;;;;3.00;1.55;;;;;;;;;;4458406;32;20216;-59
2021/08/19 13:19:56;;;;;;;4.35;1.73;;;;;;;;;;4459034;32;20271;-60
2021/08/19 13:22:22;;;;;;;6.97;2.40;;;;;;;;;;4459632;32;20345;-60
2021/08/19 13:24:49;;;;;;;2.65;1.80;;;;;;;;;;4447157;32;20510;-60
2021/08/19 13:27:15;;;;;;;4.55;2.10;;;;;;;;;;4447331;32;20269;-60
2021/08/19 13:29:42;;;;;;;5.70;2.55;;;;;;;;;;4443523;32;20924;-58
2021/08/19 13:32:08;;;;;;;3.65;2.33;;;;;;;;;;4451609;32;20801;-59
2021/08/19 13:34:35;;;;;;;2.58;1.67;;;;;;;;;;4452908;32;20204;-59
2021/08/19 13:37:01;;;;;;;3.30;1.92;;;;;;;;;;4461890;32;20563;-59
2021/08/19 13:39:27;;;;;;;3.15;2.50;;;;;;;;;;4448692;32;21103;-60
2021/08/19 13:41:53;;;;;;;2.58;1.62;;;;;;;;;;4463020;32;20292;-60
2021/08/19 13:44:19;;;;;;;2.20;1.67;;;;;;;;;;4461963;32;20371;-60
2021/08/19 13:46:44;;;;;;;4.37;2.22;;;;;;;;;;4460141;32;20633;-59
2021/08/19 13:49:10;;;;;;;4.45;2.95;;;;;;;;;;4447082;32;20262;-60
2021/08/19 13:51:35;;;;;;;2.53;1.90;;;;;;;;;;4450103;32;20283;-60
2021/08/19 13:54:00;;;;;;;3.33;2.17;;;;;;;;;;4449420;32;20216;-60
2021/08/19 13:56:26;;;;;;;2.62;2.10;;;;;;;;;;4464906;32;20663;-60
2021/08/19 13:58:52;;;;;;;3.92;2.10;;;;;;;;;;4452600;32;20250;-59
2021/08/19 14:01:17;;;;;;;4.80;1.60;;;;;;;;;;4463693;32;20275;-59
2021/08/19 14:03:43;;;;;;;3.08;2.08;;;;;;;;;;4465381;32;20304;-60
2021/08/19 14:06:09;;;;;;;3.00;2.00;;;;;;;;;;4464824;32;20298;-60
2021/08/19 14:08:35;;;;;;;3.28;2.42;;;;;;;;;;4453561;32;20267;-60
2021/08/19 14:11:01;;;;;;;4.57;2.17;;;;;;;;;;4458757;32;20239;-60
2021/08/19 14:13:27;;;;;;;2.90;1.80;;;;;;;;;;4464857;32;20728;-60
2021/08/19 14:15:52;;;;;;;2.75;2.00;;;;;;;;;;4464801;32;20765;-60
2021/08/19 14:18:18;;;;;;;10.60;6.03;;;;;;;;;;4455456;32;20236;-59
2021/08/19 14:20:43;;;;;;;4.85;2.83;;;;;;;;;;4458998;32;20293;-59
2021/08/19 14:23:09;;;;;;;4.10;2.83;;;;;;;;;;4462768;32;20748;-59
2021/08/19 14:25:34;;;;;;;3.72;2.08;;;;;;;;;;4464125;32;20303;-59
2021/08/19 14:27:59;;;;;;;6.22;3.17;;;;;;;;;;4457736;32;20283;-60
2021/08/19 14:30:25;;;;;;;4.37;1.95;;;;;;;;;;4457367;32;20383;-60
2021/08/19 14:32:50;;;;;;;4.75;2.37;;;;;;;;;;4464099;32;20727;-59
2021/08/19 14:35:16;;;;;;;5.18;2.45;;;;;;;;;;4456945;32;20692;-59
2021/08/19 14:37:41;;;;;;;2.28;1.73;;;;;;;;;;4449322;32;20275;-59
2021/08/19 14:40:07;;;;;;;3.35;2.10;;;;;;;;;;4458963;32;20673;-58
2021/08/19 14:42:33;;;;;;;2.95;1.65;;;;;;;;;;4463938;32;20299;-59
2021/08/19 14:44:59;;;;;;;2.67;1.77;;;;;;;;;;4464173;32;20242;-58